sensor_id;sensor_type;location;lat;lon;timestamp;temperature;humidity
75210;DHT22;63796;53.136;14.882;2023-05-14T00:00:46;10.60;99.90
75210;DHT22;63796;53.136;14.882;2023-05-14T00:03:28;10.40;99.90
75210;DHT22;63796;53.136;14.882;2023-05-14T00:05:55;10.30;99.90
75210;DHT22;63796;53.136;14.882;2023-05-14T00:08:23;10.50;99.90
75210;DHT22;63796;53.136;14.882;2023-05-14T00:10:51;10.40;99.90
75210;DHT22;63796;53.136;14.882;2023-05-14T00:13:18;10.40;99.90
75210;DHT22;63796;53.136;14.882;2023-05-14T00:15:46;10.50;99.90
75210;DHT22;63796;53.136;14.882;2023-05-14T00:18:13;10.20;99.90
75210;DHT22;63796;53.136;14.882;2023-05-14T00:20:41;10.00;99.90
75210;DHT22;63796;53.136;14.882;2023-05-14T00:23:09;10.10;99.90
75210;DHT22;63796;53.136;14.882;2023-05-14T00:25:36;10.10;99.90
75210;DHT22;63796;53.136;14.882;2023-05-14T00:28:04;10.20;99.90
75210;DHT22;63796;53.136;14.882;2023-05-14T00:30:31;10.20;99.90
75210;DHT22;63796;53.136;14.882;2023-05-14T00:32:59;10.20;99.90
75210;DHT22;63796;53.136;14.882;2023-05-14T00:35:27;10.10;99.90
75210;DHT22;63796;53.136;14.882;2023-05-14T00:37:54;9.90;99.90
75210;DHT22;63796;53.136;14.882;2023-05-14T00:40:25;9.80;99.90
75210;DHT22;63796;53.136;14.882;2023-05-14T00:42:53;9.70;99.90
75210;DHT22;63796;53.136;14.882;2023-05-14T00:45:21;9.80;99.90
75210;DHT22;63796;53.136;14.882;2023-05-14T00:47:50;9.90;99.90
75210;DHT22;63796;53.136;14.882;2023-05-14T00:50:18;9.70;99.90
75210;DHT22;63796;53.136;14.882;2023-05-14T00:52:46;9.60;99.90
75210;DHT22;63796;53.136;14.882;2023-05-14T00:55:15;9.40;99.90
75210;DHT22;63796;53.136;14.882;2023-05-14T00:57:43;9.20;99.90
75210;DHT22;63796;53.136;14.882;2023-05-14T01:00:11;9.10;99.90
75210;DHT22;63796;53.136;14.882;2023-05-14T01:02:39;9.20;99.90
75210;DHT22;63796;53.136;14.882;2023-05-14T01:05:07;9.20;99.90
75210;DHT22;63796;53.136;14.882;2023-05-14T01:10:10;9.00;99.90
75210;DHT22;63796;53.136;14.882;2023-05-14T01:12:49;9.10;99.90
75210;DHT22;63796;53.136;14.882;2023-05-14T01:15:24;9.30;99.90
75210;DHT22;63796;53.136;14.882;2023-05-14T01:17:58;9.30;99.90
75210;DHT22;63796;53.136;14.882;2023-05-14T01:20:31;9.30;99.90
75210;DHT22;63796;53.136;14.882;2023-05-14T01:22:58;9.30;99.90
75210;DHT22;63796;53.136;14.882;2023-05-14T01:25:26;9.10;99.90
75210;DHT22;63796;53.136;14.882;2023-05-14T01:30:30;9.20;99.90
75210;DHT22;63796;53.136;14.882;2023-05-14T01:33:01;9.20;99.90
75210;DHT22;63796;53.136;14.882;2023-05-14T01:35:35;9.00;99.90
75210;DHT22;63796;53.136;14.882;2023-05-14T01:38:03;9.00;99.90
75210;DHT22;63796;53.136;14.882;2023-05-14T01:40:33;9.20;99.90
75210;DHT22;63796;53.136;14.882;2023-05-14T01:43:03;9.30;99.90
75210;DHT22;63796;53.136;14.882;2023-05-14T01:45:33;9.40;99.90
75210;DHT22;63796;53.136;14.882;2023-05-14T01:48:01;9.30;99.90
75210;DHT22;63796;53.136;14.882;2023-05-14T01:50:30;9.30;99.90
75210;DHT22;63796;53.136;14.882;2023-05-14T01:52:57;9.30;99.90
75210;DHT22;63796;53.136;14.882;2023-05-14T01:55:24;9.20;99.90
75210;DHT22;63796;53.136;14.882;2023-05-14T01:57:52;9.10;99.90
75210;DHT22;63796;53.136;14.882;2023-05-14T02:00:20;9.00;99.90
75210;DHT22;63796;53.136;14.882;2023-05-14T02:02:50;8.90;99.90
75210;DHT22;63796;53.136;14.882;2023-05-14T02:05:17;8.90;99.90
75210;DHT22;63796;53.136;14.882;2023-05-14T02:07:45;8.90;99.90
75210;DHT22;63796;53.136;14.882;2023-05-14T02:10:13;9.20;99.90
75210;DHT22;63796;53.136;14.882;2023-05-14T02:12:40;9.30;99.90
75210;DHT22;63796;53.136;14.882;2023-05-14T02:15:07;9.10;99.90
75210;DHT22;63796;53.136;14.882;2023-05-14T02:17:36;9.10;99.90
75210;DHT22;63796;53.136;14.882;2023-05-14T02:20:04;9.10;99.90
75210;DHT22;63796;53.136;14.882;2023-05-14T02:22:32;8.90;99.90
75210;DHT22;63796;53.136;14.882;2023-05-14T02:24:59;8.80;99.90
75210;DHT22;63796;53.136;14.882;2023-05-14T02:27:26;8.90;99.90
75210;DHT22;63796;53.136;14.882;2023-05-14T02:29:54;8.90;99.90
75210;DHT22;63796;53.136;14.882;2023-05-14T02:32:26;9.10;99.90
75210;DHT22;63796;53.136;14.882;2023-05-14T02:34:54;9.20;99.90
75210;DHT22;63796;53.136;14.882;2023-05-14T02:37:21;9.20;99.90
75210;DHT22;63796;53.136;14.882;2023-05-14T02:39:48;9.10;99.90
75210;DHT22;63796;53.136;14.882;2023-05-14T02:42:15;9.00;99.90
75210;DHT22;63796;53.136;14.882;2023-05-14T02:44:43;9.00;99.90
75210;DHT22;63796;53.136;14.882;2023-05-14T02:47:10;8.80;99.90
75210;DHT22;63796;53.136;14.882;2023-05-14T02:49:38;8.90;99.90
75210;DHT22;63796;53.136;14.882;2023-05-14T02:52:06;8.90;99.90
75210;DHT22;63796;53.136;14.882;2023-05-14T02:54:33;8.90;99.90
75210;DHT22;63796;53.136;14.882;2023-05-14T02:57:00;8.80;99.90
75210;DHT22;63796;53.136;14.882;2023-05-14T02:59:28;8.70;99.90
75210;DHT22;63796;53.136;14.882;2023-05-14T03:01:56;8.80;99.90
75210;DHT22;63796;53.136;14.882;2023-05-14T03:04:24;8.80;99.90
75210;DHT22;63796;53.136;14.882;2023-05-14T03:06:51;8.70;99.90
75210;DHT22;63796;53.136;14.882;2023-05-14T03:09:18;8.70;99.90
75210;DHT22;63796;53.136;14.882;2023-05-14T03:11:46;8.70;99.90
75210;DHT22;63796;53.136;14.882;2023-05-14T03:14:13;8.70;99.90
75210;DHT22;63796;53.136;14.882;2023-05-14T03:16:40;8.80;99.90
75210;DHT22;63796;53.136;14.882;2023-05-14T03:19:08;9.00;99.90
75210;DHT22;63796;53.136;14.882;2023-05-14T03:21:36;9.10;99.90
75210;DHT22;63796;53.136;14.882;2023-05-14T03:24:03;9.20;99.90
75210;DHT22;63796;53.136;14.882;2023-05-14T03:26:31;9.30;99.90
75210;DHT22;63796;53.136;14.882;2023-05-14T03:28:58;9.30;99.90
75210;DHT22;63796;53.136;14.882;2023-05-14T03:31:25;8.90;99.90
75210;DHT22;63796;53.136;14.882;2023-05-14T03:33:53;8.90;99.90
75210;DHT22;63796;53.136;14.882;2023-05-14T03:36:20;8.90;99.90
75210;DHT22;63796;53.136;14.882;2023-05-14T03:38:47;8.90;99.90
75210;DHT22;63796;53.136;14.882;2023-05-14T03:41:15;8.80;99.90
75210;DHT22;63796;53.136;14.882;2023-05-14T03:43:44;9.00;99.90
75210;DHT22;63796;53.136;14.882;2023-05-14T03:46:11;9.10;99.90
75210;DHT22;63796;53.136;14.882;2023-05-14T03:48:38;9.10;99.90
75210;DHT22;63796;53.136;14.882;2023-05-14T03:51:05;9.00;99.90
75210;DHT22;63796;53.136;14.882;2023-05-14T03:53:33;9.10;99.90
75210;DHT22;63796;53.136;14.882;2023-05-14T03:56:00;9.20;99.90
75210;DHT22;63796;53.136;14.882;2023-05-14T03:58:28;9.20;99.90
75210;DHT22;63796;53.136;14.882;2023-05-14T04:00:55;9.00;99.90
75210;DHT22;63796;53.136;14.882;2023-05-14T04:03:24;9.10;99.90
75210;DHT22;63796;53.136;14.882;2023-05-14T04:05:51;9.50;99.90
75210;DHT22;63796;53.136;14.882;2023-05-14T04:08:18;9.70;99.90
75210;DHT22;63796;53.136;14.882;2023-05-14T04:10:46;10.00;99.90
75210;DHT22;63796;53.136;14.882;2023-05-14T04:13:13;10.30;99.90
75210;DHT22;63796;53.136;14.882;2023-05-14T04:15:40;10.20;99.90
75210;DHT22;63796;53.136;14.882;2023-05-14T04:18:07;10.20;99.90
75210;DHT22;63796;53.136;14.882;2023-05-14T04:20:35;10.30;99.90
75210;DHT22;63796;53.136;14.882;2023-05-14T04:23:02;10.50;99.90
75210;DHT22;63796;53.136;14.882;2023-05-14T04:25:30;10.90;99.90
75210;DHT22;63796;53.136;14.882;2023-05-14T04:27:57;11.00;99.90
75210;DHT22;63796;53.136;14.882;2023-05-14T04:30:24;11.20;99.90
75210;DHT22;63796;53.136;14.882;2023-05-14T04:32:52;11.50;99.90
75210;DHT22;63796;53.136;14.882;2023-05-14T04:35:19;11.80;99.90
75210;DHT22;63796;53.136;14.882;2023-05-14T04:37:50;12.70;99.90
75210;DHT22;63796;53.136;14.882;2023-05-14T04:40:18;12.90;99.90
75210;DHT22;63796;53.136;14.882;2023-05-14T04:42:45;13.30;99.90
75210;DHT22;63796;53.136;14.882;2023-05-14T04:45:13;14.80;99.90
75210;DHT22;63796;53.136;14.882;2023-05-14T04:47:40;14.00;99.90
75210;DHT22;63796;53.136;14.882;2023-05-14T04:50:08;13.30;99.90
75210;DHT22;63796;53.136;14.882;2023-05-14T04:52:36;14.50;99.90
75210;DHT22;63796;53.136;14.882;2023-05-14T04:55:04;16.80;99.90
75210;DHT22;63796;53.136;14.882;2023-05-14T04:57:32;18.40;99.90
75210;DHT22;63796;53.136;14.882;2023-05-14T05:00:00;18.80;99.90
75210;DHT22;63796;53.136;14.882;2023-05-14T05:02:28;19.30;99.90
75210;DHT22;63796;53.136;14.882;2023-05-14T05:04:55;19.40;99.90
75210;DHT22;63796;53.136;14.882;2023-05-14T05:07:22;20.50;99.90
75210;DHT22;63796;53.136;14.882;2023-05-14T05:09:50;20.70;99.90
75210;DHT22;63796;53.136;14.882;2023-05-14T05:12:17;19.50;99.90
75210;DHT22;63796;53.136;14.882;2023-05-14T05:14:44;17.90;99.90
75210;DHT22;63796;53.136;14.882;2023-05-14T05:17:13;16.90;99.90
75210;DHT22;63796;53.136;14.882;2023-05-14T05:19:40;16.40;99.90
75210;DHT22;63796;53.136;14.882;2023-05-14T05:22:10;16.30;99.90
75210;DHT22;63796;53.136;14.882;2023-05-14T05:24:37;16.30;99.90
75210;DHT22;63796;53.136;14.882;2023-05-14T05:27:05;16.20;99.90
75210;DHT22;63796;53.136;14.882;2023-05-14T05:29:33;16.30;99.90
75210;DHT22;63796;53.136;14.882;2023-05-14T05:32:00;16.50;99.90
75210;DHT22;63796;53.136;14.882;2023-05-14T05:34:28;16.70;99.90
75210;DHT22;63796;53.136;14.882;2023-05-14T05:36:55;16.80;99.90
75210;DHT22;63796;53.136;14.882;2023-05-14T05:39:22;17.10;99.90
75210;DHT22;63796;53.136;14.882;2023-05-14T05:41:49;17.30;99.90
75210;DHT22;63796;53.136;14.882;2023-05-14T05:44:17;17.40;99.90
75210;DHT22;63796;53.136;14.882;2023-05-14T05:46:44;17.80;99.90
75210;DHT22;63796;53.136;14.882;2023-05-14T05:49:11;18.20;99.90
75210;DHT22;63796;53.136;14.882;2023-05-14T05:51:39;19.40;99.90
75210;DHT22;63796;53.136;14.882;2023-05-14T05:54:06;22.50;99.90
75210;DHT22;63796;53.136;14.882;2023-05-14T05:56:33;24.50;95.50
75210;DHT22;63796;53.136;14.882;2023-05-14T05:59:01;25.30;92.30
75210;DHT22;63796;53.136;14.882;2023-05-14T06:01:29;26.50;87.70
75210;DHT22;63796;53.136;14.882;2023-05-14T06:03:57;25.60;87.70
75210;DHT22;63796;53.136;14.882;2023-05-14T06:06:24;24.40;90.60
75210;DHT22;63796;53.136;14.882;2023-05-14T06:08:51;25.00;90.10
75210;DHT22;63796;53.136;14.882;2023-05-14T06:11:18;24.00;91.00
75210;DHT22;63796;53.136;14.882;2023-05-14T06:13:46;21.60;95.80
75210;DHT22;63796;53.136;14.882;2023-05-14T06:16:13;20.90;99.00
75210;DHT22;63796;53.136;14.882;2023-05-14T06:18:40;20.70;99.90
75210;DHT22;63796;53.136;14.882;2023-05-14T06:21:08;20.60;99.90
75210;DHT22;63796;53.136;14.882;2023-05-14T06:23:35;20.60;99.90
75210;DHT22;63796;53.136;14.882;2023-05-14T06:26:02;20.70;99.90
75210;DHT22;63796;53.136;14.882;2023-05-14T06:28:30;21.10;99.90
75210;DHT22;63796;53.136;14.882;2023-05-14T06:30:57;21.80;99.60
75210;DHT22;63796;53.136;14.882;2023-05-14T06:33:24;23.00;97.70
75210;DHT22;63796;53.136;14.882;2023-05-14T06:35:57;23.50;95.00
75210;DHT22;63796;53.136;14.882;2023-05-14T06:38:25;22.50;96.50
75210;DHT22;63796;53.136;14.882;2023-05-14T06:40:53;23.50;95.30
75210;DHT22;63796;53.136;14.882;2023-05-14T06:43:20;25.90;90.80
75210;DHT22;63796;53.136;14.882;2023-05-14T06:45:48;26.80;86.60
75210;DHT22;63796;53.136;14.882;2023-05-14T06:48:16;28.40;80.80
75210;DHT22;63796;53.136;14.882;2023-05-14T06:50:47;29.30;74.70
75210;DHT22;63796;53.136;14.882;2023-05-14T06:53:15;29.70;73.60
75210;DHT22;63796;53.136;14.882;2023-05-14T06:55:42;30.50;70.00
75210;DHT22;63796;53.136;14.882;2023-05-14T06:58:10;30.70;67.60
75210;DHT22;63796;53.136;14.882;2023-05-14T07:00:38;31.40;66.10
75210;DHT22;63796;53.136;14.882;2023-05-14T07:03:06;31.40;65.10
75210;DHT22;63796;53.136;14.882;2023-05-14T07:05:33;31.70;64.20
75210;DHT22;63796;53.136;14.882;2023-05-14T07:08:00;31.80;63.00
75210;DHT22;63796;53.136;14.882;2023-05-14T07:10:28;29.80;67.60
75210;DHT22;63796;53.136;14.882;2023-05-14T07:12:56;30.00;69.50
75210;DHT22;63796;53.136;14.882;2023-05-14T07:15:25;27.90;71.20
75210;DHT22;63796;53.136;14.882;2023-05-14T07:17:52;25.60;78.70
75210;DHT22;63796;53.136;14.882;2023-05-14T07:20:19;24.70;82.90
75210;DHT22;63796;53.136;14.882;2023-05-14T07:22:51;27.60;77.60
75210;DHT22;63796;53.136;14.882;2023-05-14T07:25:19;29.80;73.30
75210;DHT22;63796;53.136;14.882;2023-05-14T07:27:46;31.60;68.00
75210;DHT22;63796;53.136;14.882;2023-05-14T07:30:13;33.30;64.20
75210;DHT22;63796;53.136;14.882;2023-05-14T07:32:41;30.90;66.70
75210;DHT22;63796;53.136;14.882;2023-05-14T07:35:09;28.40;71.80
75210;DHT22;63796;53.136;14.882;2023-05-14T07:37:37;25.90;77.80
75210;DHT22;63796;53.136;14.882;2023-05-14T07:40:05;25.60;78.60
75210;DHT22;63796;53.136;14.882;2023-05-14T07:42:32;25.20;76.20
75210;DHT22;63796;53.136;14.882;2023-05-14T07:45:03;24.60;77.90
75210;DHT22;63796;53.136;14.882;2023-05-14T07:47:31;24.00;79.90
75210;DHT22;63796;53.136;14.882;2023-05-14T07:49:59;22.70;84.50
75210;DHT22;63796;53.136;14.882;2023-05-14T07:56:45;21.30;91.10
75210;DHT22;63796;53.136;14.882;2023-05-14T07:59:12;21.20;91.90
75210;DHT22;63796;53.136;14.882;2023-05-14T08:01:40;21.10;92.20
75210;DHT22;63796;53.136;14.882;2023-05-14T08:04:07;21.00;93.20
75210;DHT22;63796;53.136;14.882;2023-05-14T08:06:37;20.60;94.20
75210;DHT22;63796;53.136;14.882;2023-05-14T08:09:04;20.60;96.50
75210;DHT22;63796;53.136;14.882;2023-05-14T08:11:32;21.00;96.30
75210;DHT22;63796;53.136;14.882;2023-05-14T08:14:00;24.80;90.60
75210;DHT22;63796;53.136;14.882;2023-05-14T08:16:27;30.40;72.00
75210;DHT22;63796;53.136;14.882;2023-05-14T08:18:55;32.70;62.80
75210;DHT22;63796;53.136;14.882;2023-05-14T08:21:22;33.30;60.00
75210;DHT22;63796;53.136;14.882;2023-05-14T08:23:49;33.00;59.00
75210;DHT22;63796;53.136;14.882;2023-05-14T08:26:17;33.60;58.10
75210;DHT22;63796;53.136;14.882;2023-05-14T08:28:44;33.80;56.80
75210;DHT22;63796;53.136;14.882;2023-05-14T08:31:11;32.40;56.90
75210;DHT22;63796;53.136;14.882;2023-05-14T08:33:40;30.70;58.30
75210;DHT22;63796;53.136;14.882;2023-05-14T08:36:07;29.30;61.30
75210;DHT22;63796;53.136;14.882;2023-05-14T08:38:35;33.20;55.80
75210;DHT22;63796;53.136;14.882;2023-05-14T08:41:02;35.40;52.80
75210;DHT22;63796;53.136;14.882;2023-05-14T08:43:43;36.60;51.90
75210;DHT22;63796;53.136;14.882;2023-05-14T08:46:18;36.40;51.20
75210;DHT22;63796;53.136;14.882;2023-05-14T08:48:56;37.20;49.80
75210;DHT22;63796;53.136;14.882;2023-05-14T08:51:30;36.60;49.80
75210;DHT22;63796;53.136;14.882;2023-05-14T08:54:01;36.30;50.30
75210;DHT22;63796;53.136;14.882;2023-05-14T08:56:30;37.40;48.50
75210;DHT22;63796;53.136;14.882;2023-05-14T08:58:58;35.80;48.00
75210;DHT22;63796;53.136;14.882;2023-05-14T09:01:26;35.20;49.60
75210;DHT22;63796;53.136;14.882;2023-05-14T09:03:55;34.80;48.90
75210;DHT22;63796;53.136;14.882;2023-05-14T09:06:23;35.00;48.00
75210;DHT22;63796;53.136;14.882;2023-05-14T09:08:51;33.50;49.30
75210;DHT22;63796;53.136;14.882;2023-05-14T09:11:20;34.20;48.40
75210;DHT22;63796;53.136;14.882;2023-05-14T09:13:47;33.30;48.30
75210;DHT22;63796;53.136;14.882;2023-05-14T09:16:15;33.30;48.50
75210;DHT22;63796;53.136;14.882;2023-05-14T09:18:44;31.80;49.50
75210;DHT22;63796;53.136;14.882;2023-05-14T09:21:12;31.30;51.60
75210;DHT22;63796;53.136;14.882;2023-05-14T09:23:41;32.00;51.00
75210;DHT22;63796;53.136;14.882;2023-05-14T09:26:15;31.50;51.00
75210;DHT22;63796;53.136;14.882;2023-05-14T09:28:43;32.50;50.80
75210;DHT22;63796;53.136;14.882;2023-05-14T09:31:10;33.30;50.10
75210;DHT22;63796;53.136;14.882;2023-05-14T09:33:38;33.80;49.10
75210;DHT22;63796;53.136;14.882;2023-05-14T09:36:05;31.80;50.70
75210;DHT22;63796;53.136;14.882;2023-05-14T09:38:32;32.60;50.90
75210;DHT22;63796;53.136;14.882;2023-05-14T09:41:00;31.50;49.80
75210;DHT22;63796;53.136;14.882;2023-05-14T09:43:27;33.10;48.80
75210;DHT22;63796;53.136;14.882;2023-05-14T09:45:54;33.00;49.40
75210;DHT22;63796;53.136;14.882;2023-05-14T09:48:21;34.60;47.70
75210;DHT22;63796;53.136;14.882;2023-05-14T09:50:50;34.50;47.90
75210;DHT22;63796;53.136;14.882;2023-05-14T09:53:18;35.30;49.10
75210;DHT22;63796;53.136;14.882;2023-05-14T09:55:45;37.40;48.20
75210;DHT22;63796;53.136;14.882;2023-05-14T09:58:13;37.70;46.10
75210;DHT22;63796;53.136;14.882;2023-05-14T10:00:44;37.20;48.50
75210;DHT22;63796;53.136;14.882;2023-05-14T10:03:13;38.60;44.70
75210;DHT22;63796;53.136;14.882;2023-05-14T10:05:44;38.80;45.30
75210;DHT22;63796;53.136;14.882;2023-05-14T10:08:25;39.20;44.80
75210;DHT22;63796;53.136;14.882;2023-05-14T10:11:08;39.00;44.60
75210;DHT22;63796;53.136;14.882;2023-05-14T10:13:40;37.70;45.10
75210;DHT22;63796;53.136;14.882;2023-05-14T10:16:30;35.70;46.10
75210;DHT22;63796;53.136;14.882;2023-05-14T10:19:08;34.10;47.50
75210;DHT22;63796;53.136;14.882;2023-05-14T10:21:37;34.40;48.10
75210;DHT22;63796;53.136;14.882;2023-05-14T10:24:07;34.60;48.40
75210;DHT22;63796;53.136;14.882;2023-05-14T10:26:36;34.80;46.90
75210;DHT22;63796;53.136;14.882;2023-05-14T10:29:05;33.20;48.10
75210;DHT22;63796;53.136;14.882;2023-05-14T10:31:52;32.40;49.20
75210;DHT22;63796;53.136;14.882;2023-05-14T10:34:30;32.90;50.10
75210;DHT22;63796;53.136;14.882;2023-05-14T10:37:16;32.00;51.20
75210;DHT22;63796;53.136;14.882;2023-05-14T10:39:46;33.40;48.20
75210;DHT22;63796;53.136;14.882;2023-05-14T10:44:54;36.70;45.60
75210;DHT22;63796;53.136;14.882;2023-05-14T10:47:24;36.30;46.50
75210;DHT22;63796;53.136;14.882;2023-05-14T10:49:54;32.60;48.90
75210;DHT22;63796;53.136;14.882;2023-05-14T10:52:23;31.70;50.40
75210;DHT22;63796;53.136;14.882;2023-05-14T10:54:52;29.50;51.10
75210;DHT22;63796;53.136;14.882;2023-05-14T10:57:20;28.90;52.70
75210;DHT22;63796;53.136;14.882;2023-05-14T10:59:51;27.20;55.70
75210;DHT22;63796;53.136;14.882;2023-05-14T11:04:59;24.80;60.30
75210;DHT22;63796;53.136;14.882;2023-05-14T11:07:32;24.50;58.40
75210;DHT22;63796;53.136;14.882;2023-05-14T11:10:08;24.50;62.20
75210;DHT22;63796;53.136;14.882;2023-05-14T11:12:38;23.80;59.80
75210;DHT22;63796;53.136;14.882;2023-05-14T11:15:07;23.30;61.70
75210;DHT22;63796;53.136;14.882;2023-05-14T11:17:36;23.30;61.40
75210;DHT22;63796;53.136;14.882;2023-05-14T11:20:06;23.00;60.80
75210;DHT22;63796;53.136;14.882;2023-05-14T11:22:34;22.80;62.80
75210;DHT22;63796;53.136;14.882;2023-05-14T11:25:03;22.80;63.30
75210;DHT22;63796;53.136;14.882;2023-05-14T11:27:32;22.70;63.20
75210;DHT22;63796;53.136;14.882;2023-05-14T11:30:02;22.70;64.10
75210;DHT22;63796;53.136;14.882;2023-05-14T11:32:33;22.90;64.20
75210;DHT22;63796;53.136;14.882;2023-05-14T11:35:01;22.70;64.40
75210;DHT22;63796;53.136;14.882;2023-05-14T11:37:28;22.60;66.00
75210;DHT22;63796;53.136;14.882;2023-05-14T11:39:58;22.50;66.90
75210;DHT22;63796;53.136;14.882;2023-05-14T11:42:26;22.50;67.70
75210;DHT22;63796;53.136;14.882;2023-05-14T11:44:53;22.80;66.90
75210;DHT22;63796;53.136;14.882;2023-05-14T11:47:21;23.00;64.60
75210;DHT22;63796;53.136;14.882;2023-05-14T11:49:48;22.90;63.90
75210;DHT22;63796;53.136;14.882;2023-05-14T11:52:16;23.60;62.90
75210;DHT22;63796;53.136;14.882;2023-05-14T11:54:45;23.30;62.50
75210;DHT22;63796;53.136;14.882;2023-05-14T11:57:14;23.30;65.00
75210;DHT22;63796;53.136;14.882;2023-05-14T11:59:46;22.90;64.40
75210;DHT22;63796;53.136;14.882;2023-05-14T12:02:16;22.90;62.20
75210;DHT22;63796;53.136;14.882;2023-05-14T12:04:48;23.20;63.90
75210;DHT22;63796;53.136;14.882;2023-05-14T12:07:18;23.50;62.00
75210;DHT22;63796;53.136;14.882;2023-05-14T12:09:45;23.40;62.80
75210;DHT22;63796;53.136;14.882;2023-05-14T12:12:20;22.90;62.70
75210;DHT22;63796;53.136;14.882;2023-05-14T12:14:49;22.60;65.10
75210;DHT22;63796;53.136;14.882;2023-05-14T12:17:20;22.90;65.00
75210;DHT22;63796;53.136;14.882;2023-05-14T12:19:52;22.70;65.80
75210;DHT22;63796;53.136;14.882;2023-05-14T12:22:20;22.60;64.50
75210;DHT22;63796;53.136;14.882;2023-05-14T12:24:55;22.60;64.90
75210;DHT22;63796;53.136;14.882;2023-05-14T12:27:27;22.80;65.40
75210;DHT22;63796;53.136;14.882;2023-05-14T12:30:02;22.80;65.60
75210;DHT22;63796;53.136;14.882;2023-05-14T12:32:34;23.10;64.90
75210;DHT22;63796;53.136;14.882;2023-05-14T12:35:03;23.10;64.80
75210;DHT22;63796;53.136;14.882;2023-05-14T12:37:31;23.40;62.90
75210;DHT22;63796;53.136;14.882;2023-05-14T12:40:00;23.60;60.20
75210;DHT22;63796;53.136;14.882;2023-05-14T12:42:27;23.90;61.80
75210;DHT22;63796;53.136;14.882;2023-05-14T12:44:54;24.10;60.50
75210;DHT22;63796;53.136;14.882;2023-05-14T12:47:22;24.20;61.80
75210;DHT22;63796;53.136;14.882;2023-05-14T12:49:50;24.60;59.20
75210;DHT22;63796;53.136;14.882;2023-05-14T12:52:17;24.50;58.10
75210;DHT22;63796;53.136;14.882;2023-05-14T12:54:59;24.20;58.70
75210;DHT22;63796;53.136;14.882;2023-05-14T12:57:27;23.60;58.60
75210;DHT22;63796;53.136;14.882;2023-05-14T12:59:56;23.50;58.20
75210;DHT22;63796;53.136;14.882;2023-05-14T13:02:24;23.30;58.60
75210;DHT22;63796;53.136;14.882;2023-05-14T13:04:51;23.40;59.20
75210;DHT22;63796;53.136;14.882;2023-05-14T13:07:19;23.20;60.50
75210;DHT22;63796;53.136;14.882;2023-05-14T13:09:46;22.60;60.70
75210;DHT22;63796;53.136;14.882;2023-05-14T13:12:13;22.50;61.60
75210;DHT22;63796;53.136;14.882;2023-05-14T13:14:41;22.30;62.30
75210;DHT22;63796;53.136;14.882;2023-05-14T13:17:08;22.40;63.20
75210;DHT22;63796;53.136;14.882;2023-05-14T13:19:36;22.50;64.20
75210;DHT22;63796;53.136;14.882;2023-05-14T13:22:03;22.60;63.60
75210;DHT22;63796;53.136;14.882;2023-05-14T13:24:31;22.60;64.00
75210;DHT22;63796;53.136;14.882;2023-05-14T13:26:58;22.70;64.90
75210;DHT22;63796;53.136;14.882;2023-05-14T13:29:26;23.10;64.10
75210;DHT22;63796;53.136;14.882;2023-05-14T13:31:55;23.10;63.80
75210;DHT22;63796;53.136;14.882;2023-05-14T13:34:23;23.20;63.50
75210;DHT22;63796;53.136;14.882;2023-05-14T13:36:50;23.30;64.30
75210;DHT22;63796;53.136;14.882;2023-05-14T13:39:18;23.50;62.90
75210;DHT22;63796;53.136;14.882;2023-05-14T13:41:48;23.50;64.00
75210;DHT22;63796;53.136;14.882;2023-05-14T13:44:16;23.60;64.70
75210;DHT22;63796;53.136;14.882;2023-05-14T13:46:43;23.90;64.00
75210;DHT22;63796;53.136;14.882;2023-05-14T13:49:11;23.60;64.80
75210;DHT22;63796;53.136;14.882;2023-05-14T13:51:38;23.50;65.50
75210;DHT22;63796;53.136;14.882;2023-05-14T13:54:06;23.60;65.50
75210;DHT22;63796;53.136;14.882;2023-05-14T13:56:33;23.50;64.60
75210;DHT22;63796;53.136;14.882;2023-05-14T13:59:01;23.50;67.00
75210;DHT22;63796;53.136;14.882;2023-05-14T14:01:29;23.50;68.70
75210;DHT22;63796;53.136;14.882;2023-05-14T14:03:57;23.60;68.80
75210;DHT22;63796;53.136;14.882;2023-05-14T14:06:25;23.80;65.70
75210;DHT22;63796;53.136;14.882;2023-05-14T14:08:55;23.90;64.10
75210;DHT22;63796;53.136;14.882;2023-05-14T14:11:22;23.90;64.70
75210;DHT22;63796;53.136;14.882;2023-05-14T14:13:50;24.00;64.30
75210;DHT22;63796;53.136;14.882;2023-05-14T14:16:17;24.40;63.90
75210;DHT22;63796;53.136;14.882;2023-05-14T14:18:45;24.50;61.50
75210;DHT22;63796;53.136;14.882;2023-05-14T14:21:12;24.10;61.80
75210;DHT22;63796;53.136;14.882;2023-05-14T14:23:40;24.20;59.90
75210;DHT22;63796;53.136;14.882;2023-05-14T14:26:07;24.20;61.40
75210;DHT22;63796;53.136;14.882;2023-05-14T14:28:34;24.40;59.20
75210;DHT22;63796;53.136;14.882;2023-05-14T14:31:01;24.30;58.20
75210;DHT22;63796;53.136;14.882;2023-05-14T14:33:29;24.20;61.60
75210;DHT22;63796;53.136;14.882;2023-05-14T14:35:56;23.70;60.60
75210;DHT22;63796;53.136;14.882;2023-05-14T14:38:23;23.60;60.00
75210;DHT22;63796;53.136;14.882;2023-05-14T14:40:50;23.70;59.80
75210;DHT22;63796;53.136;14.882;2023-05-14T14:43:18;23.50;60.00
75210;DHT22;63796;53.136;14.882;2023-05-14T14:45:45;23.60;61.20
75210;DHT22;63796;53.136;14.882;2023-05-14T14:48:21;23.90;60.20
75210;DHT22;63796;53.136;14.882;2023-05-14T14:50:59;23.70;61.00
75210;DHT22;63796;53.136;14.882;2023-05-14T14:53:27;23.00;61.70
75210;DHT22;63796;53.136;14.882;2023-05-14T14:55:55;23.20;61.70
75210;DHT22;63796;53.136;14.882;2023-05-14T14:58:23;23.40;62.80
75210;DHT22;63796;53.136;14.882;2023-05-14T15:00:51;23.60;64.00
75210;DHT22;63796;53.136;14.882;2023-05-14T15:03:20;23.50;64.60
75210;DHT22;63796;53.136;14.882;2023-05-14T15:05:48;23.70;63.80
75210;DHT22;63796;53.136;14.882;2023-05-14T15:08:16;23.50;64.30
75210;DHT22;63796;53.136;14.882;2023-05-14T15:10:44;23.50;63.60
75210;DHT22;63796;53.136;14.882;2023-05-14T15:13:11;23.60;62.90
75210;DHT22;63796;53.136;14.882;2023-05-14T15:15:39;23.50;63.50
75210;DHT22;63796;53.136;14.882;2023-05-14T15:18:06;23.30;64.20
75210;DHT22;63796;53.136;14.882;2023-05-14T15:20:33;22.90;64.70
75210;DHT22;63796;53.136;14.882;2023-05-14T15:23:00;23.00;65.30
75210;DHT22;63796;53.136;14.882;2023-05-14T15:25:28;22.90;66.10
75210;DHT22;63796;53.136;14.882;2023-05-14T15:27:55;23.10;65.40
75210;DHT22;63796;53.136;14.882;2023-05-14T15:30:23;22.90;65.60
75210;DHT22;63796;53.136;14.882;2023-05-14T15:32:50;23.00;66.10
75210;DHT22;63796;53.136;14.882;2023-05-14T15:35:18;23.30;65.60
75210;DHT22;63796;53.136;14.882;2023-05-14T15:37:45;22.90;66.60
75210;DHT22;63796;53.136;14.882;2023-05-14T15:40:12;22.80;66.10
75210;DHT22;63796;53.136;14.882;2023-05-14T15:42:40;22.60;66.40